sensor_id;sensor_type;location;lat;lon;timestamp;P1;durP1;ratioP1;P2;durP2;ratioP2
43098;SDS011;28715;51.988;6.020;2023-04-16T00:00:59;0.57;;;0.57;;
43098;SDS011;28715;51.988;6.020;2023-04-16T00:03:25;1.87;;;0.87;;
43098;SDS011;28715;51.988;6.020;2023-04-16T00:05:51;0.20;;;0.20;;
43098;SDS011;28715;51.988;6.020;2023-04-16T00:08:19;0.65;;;0.57;;
43098;SDS011;28715;51.988;6.020;2023-04-16T00:10:45;3.28;;;0.98;;
43098;SDS011;28715;51.988;6.020;2023-04-16T00:13:11;1.33;;;0.83;;
43098;SDS011;28715;51.988;6.020;2023-04-16T00:15:37;12.67;;;1.40;;
43098;SDS011;28715;51.988;6.020;2023-04-16T00:18:02;0.30;;;0.30;;
43098;SDS011;28715;51.988;6.020;2023-04-16T00:20:28;1.07;;;0.67;;
43098;SDS011;28715;51.988;6.020;2023-04-16T00:22:53;2.53;;;1.63;;
43098;SDS011;28715;51.988;6.020;2023-04-16T00:25:19;1.20;;;0.80;;
43098;SDS011;28715;51.988;6.020;2023-04-16T00:27:45;0.80;;;0.40;;
43098;SDS011;28715;51.988;6.020;2023-04-16T00:30:11;3.20;;;1.47;;
43098;SDS011;28715;51.988;6.020;2023-04-16T00:32:36;0.53;;;0.50;;
43098;SDS011;28715;51.988;6.020;2023-04-16T00:35:02;0.90;;;0.30;;
43098;SDS011;28715;51.988;6.020;2023-04-16T00:37:28;0.30;;;0.20;;
43098;SDS011;28715;51.988;6.020;2023-04-16T00:39:54;0.88;;;0.57;;
43098;SDS011;28715;51.988;6.020;2023-04-16T00:42:20;2.30;;;1.20;;
43098;SDS011;28715;51.988;6.020;2023-04-16T00:44:45;6.13;;;1.90;;
43098;SDS011;28715;51.988;6.020;2023-04-16T00:47:11;0.50;;;0.27;;
43098;SDS011;28715;51.988;6.020;2023-04-16T00:49:36;3.80;;;0.97;;
43098;SDS011;28715;51.988;6.020;2023-04-16T00:52:02;2.27;;;0.80;;
43098;SDS011;28715;51.988;6.020;2023-04-16T00:54:28;0.87;;;0.43;;
43098;SDS011;28715;51.988;6.020;2023-04-16T00:56:55;0.55;;;0.55;;
43098;SDS011;28715;51.988;6.020;2023-04-16T00:59:22;1.20;;;0.93;;
43098;SDS011;28715;51.988;6.020;2023-04-16T01:01:48;2.30;;;0.30;;
43098;SDS011;28715;51.988;6.020;2023-04-16T01:04:13;3.33;;;1.27;;
43098;SDS011;28715;51.988;6.020;2023-04-16T01:06:39;5.33;;;1.30;;
43098;SDS011;28715;51.988;6.020;2023-04-16T01:09:05;2.00;;;0.57;;
43098;SDS011;28715;51.988;6.020;2023-04-16T01:11:30;0.30;;;0.30;;
43098;SDS011;28715;51.988;6.020;2023-04-16T01:13:56;1.00;;;0.73;;
43098;SDS011;28715;51.988;6.020;2023-04-16T01:16:22;0.50;;;0.50;;
43098;SDS011;28715;51.988;6.020;2023-04-16T01:18:47;2.30;;;0.97;;
43098;SDS011;28715;51.988;6.020;2023-04-16T01:21:13;16.60;;;1.90;;
43098;SDS011;28715;51.988;6.020;2023-04-16T01:23:38;2.37;;;0.30;;
43098;SDS011;28715;51.988;6.020;2023-04-16T01:26:04;6.47;;;1.57;;
43098;SDS011;28715;51.988;6.020;2023-04-16T01:28:30;0.87;;;0.80;;
43098;SDS011;28715;51.988;6.020;2023-04-16T01:30:55;0.87;;;0.87;;
43098;SDS011;28715;51.988;6.020;2023-04-16T01:33:21;20.60;;;1.90;;
43098;SDS011;28715;51.988;6.020;2023-04-16T01:35:46;7.20;;;1.07;;
43098;SDS011;28715;51.988;6.020;2023-04-16T01:38:12;2.10;;;0.67;;
43098;SDS011;28715;51.988;6.020;2023-04-16T01:40:37;0.67;;;0.67;;
43098;SDS011;28715;51.988;6.020;2023-04-16T01:43:03;2.70;;;1.57;;
43098;SDS011;28715;51.988;6.020;2023-04-16T01:45:32;1.07;;;1.00;;
43098;SDS011;28715;51.988;6.020;2023-04-16T01:50:24;1.77;;;1.30;;
43098;SDS011;28715;51.988;6.020;2023-04-16T01:52:50;1.70;;;1.23;;
43098;SDS011;28715;51.988;6.020;2023-04-16T01:55:15;1.37;;;0.60;;
43098;SDS011;28715;51.988;6.020;2023-04-16T01:57:41;1.50;;;1.23;;
43098;SDS011;28715;51.988;6.020;2023-04-16T02:00:08;3.13;;;0.80;;
43098;SDS011;28715;51.988;6.020;2023-04-16T02:02:34;1.02;;;0.65;;
43098;SDS011;28715;51.988;6.020;2023-04-16T02:05:00;1.30;;;1.20;;
43098;SDS011;28715;51.988;6.020;2023-04-16T02:07:26;2.33;;;0.47;;
43098;SDS011;28715;51.988;6.020;2023-04-16T02:09:51;2.50;;;1.80;;
43098;SDS011;28715;51.988;6.020;2023-04-16T02:12:18;1.05;;;0.88;;
43098;SDS011;28715;51.988;6.020;2023-04-16T02:14:44;0.73;;;0.50;;
43098;SDS011;28715;51.988;6.020;2023-04-16T02:17:10;2.30;;;1.17;;
43098;SDS011;28715;51.988;6.020;2023-04-16T02:19:36;3.42;;;1.38;;
43098;SDS011;28715;51.988;6.020;2023-04-16T02:22:02;2.00;;;1.90;;
43098;SDS011;28715;51.988;6.020;2023-04-16T02:24:28;7.60;;;1.37;;
43098;SDS011;28715;51.988;6.020;2023-04-16T02:26:54;1.00;;;0.83;;
43098;SDS011;28715;51.988;6.020;2023-04-16T02:29:20;2.28;;;2.08;;
43098;SDS011;28715;51.988;6.020;2023-04-16T02:31:46;2.47;;;1.13;;
43098;SDS011;28715;51.988;6.020;2023-04-16T02:34:13;21.73;;;6.68;;
43098;SDS011;28715;51.988;6.020;2023-04-16T02:36:38;10.03;;;4.00;;
43098;SDS011;28715;51.988;6.020;2023-04-16T02:39:04;14.53;;;3.83;;
43098;SDS011;28715;51.988;6.020;2023-04-16T02:41:30;24.30;;;10.83;;
43098;SDS011;28715;51.988;6.020;2023-04-16T02:43:55;24.30;;;9.63;;
43098;SDS011;28715;51.988;6.020;2023-04-16T02:46:21;22.10;;;9.53;;
43098;SDS011;28715;51.988;6.020;2023-04-16T02:48:47;31.93;;;10.37;;
43098;SDS011;28715;51.988;6.020;2023-04-16T02:51:12;24.37;;;9.70;;
43098;SDS011;28715;51.988;6.020;2023-04-16T02:53:38;26.43;;;10.07;;
43098;SDS011;28715;51.988;6.020;2023-04-16T02:56:04;24.73;;;9.03;;
43098;SDS011;28715;51.988;6.020;2023-04-16T02:58:30;27.10;;;10.50;;
43098;SDS011;28715;51.988;6.020;2023-04-16T03:00:55;25.77;;;10.03;;
43098;SDS011;28715;51.988;6.020;2023-04-16T03:03:21;27.83;;;10.03;;
43098;SDS011;28715;51.988;6.020;2023-04-16T03:05:47;26.27;;;9.97;;
43098;SDS011;28715;51.988;6.020;2023-04-16T03:08:12;34.33;;;11.30;;
43098;SDS011;28715;51.988;6.020;2023-04-16T03:10:38;31.33;;;11.70;;
43098;SDS011;28715;51.988;6.020;2023-04-16T03:13:05;28.50;;;10.15;;
43098;SDS011;28715;51.988;6.020;2023-04-16T03:15:31;29.55;;;10.60;;
43098;SDS011;28715;51.988;6.020;2023-04-16T03:17:57;30.93;;;12.23;;
43098;SDS011;28715;51.988;6.020;2023-04-16T03:20:22;27.87;;;11.40;;
43098;SDS011;28715;51.988;6.020;2023-04-16T03:22:49;27.40;;;11.77;;
43098;SDS011;28715;51.988;6.020;2023-04-16T03:25:16;28.08;;;12.40;;
43098;SDS011;28715;51.988;6.020;2023-04-16T03:27:42;32.17;;;12.02;;
43098;SDS011;28715;51.988;6.020;2023-04-16T03:30:11;29.10;;;11.97;;
43098;SDS011;28715;51.988;6.020;2023-04-16T03:32:37;29.55;;;11.80;;
43098;SDS011;28715;51.988;6.020;2023-04-16T03:35:04;29.52;;;11.70;;
43098;SDS011;28715;51.988;6.020;2023-04-16T03:37:31;32.65;;;13.50;;
43098;SDS011;28715;51.988;6.020;2023-04-16T03:39:56;30.95;;;12.38;;
43098;SDS011;28715;51.988;6.020;2023-04-16T03:42:22;33.43;;;12.63;;
43098;SDS011;28715;51.988;6.020;2023-04-16T03:44:48;31.43;;;12.87;;
43098;SDS011;28715;51.988;6.020;2023-04-16T03:47:13;35.33;;;12.77;;
43098;SDS011;28715;51.988;6.020;2023-04-16T03:49:39;30.37;;;11.73;;
43098;SDS011;28715;51.988;6.020;2023-04-16T03:52:05;30.20;;;12.87;;
43098;SDS011;28715;51.988;6.020;2023-04-16T03:54:30;28.63;;;12.53;;
43098;SDS011;28715;51.988;6.020;2023-04-16T03:56:56;37.33;;;13.17;;
43098;SDS011;28715;51.988;6.020;2023-04-16T03:59:21;34.40;;;12.83;;
43098;SDS011;28715;51.988;6.020;2023-04-16T04:01:47;30.77;;;12.43;;
43098;SDS011;28715;51.988;6.020;2023-04-16T04:04:13;26.43;;;9.53;;
43098;SDS011;28715;51.988;6.020;2023-04-16T04:06:39;31.80;;;13.63;;
43098;SDS011;28715;51.988;6.020;2023-04-16T04:09:04;26.87;;;11.90;;
43098;SDS011;28715;51.988;6.020;2023-04-16T04:11:30;24.23;;;10.03;;
43098;SDS011;28715;51.988;6.020;2023-04-16T04:13:56;24.97;;;8.57;;
43098;SDS011;28715;51.988;6.020;2023-04-16T04:16:22;21.47;;;8.13;;
43098;SDS011;28715;51.988;6.020;2023-04-16T04:18:47;24.93;;;10.00;;
43098;SDS011;28715;51.988;6.020;2023-04-16T04:21:13;23.90;;;9.67;;
43098;SDS011;28715;51.988;6.020;2023-04-16T04:23:39;24.97;;;8.47;;
43098;SDS011;28715;51.988;6.020;2023-04-16T04:26:06;24.05;;;7.63;;
43098;SDS011;28715;51.988;6.020;2023-04-16T04:28:32;21.83;;;8.10;;
43098;SDS011;28715;51.988;6.020;2023-04-16T04:30:58;20.23;;;7.75;;
43098;SDS011;28715;51.988;6.020;2023-04-16T04:33:25;17.38;;;6.85;;
43098;SDS011;28715;51.988;6.020;2023-04-16T04:35:50;34.90;;;12.97;;
43098;SDS011;28715;51.988;6.020;2023-04-16T04:38:16;34.90;;;14.45;;
43098;SDS011;28715;51.988;6.020;2023-04-16T04:40:44;34.08;;;13.38;;
43098;SDS011;28715;51.988;6.020;2023-04-16T04:43:10;33.85;;;13.93;;
43098;SDS011;28715;51.988;6.020;2023-04-16T04:45:35;35.93;;;14.87;;
43098;SDS011;28715;51.988;6.020;2023-04-16T04:48:01;41.77;;;15.50;;
43098;SDS011;28715;51.988;6.020;2023-04-16T04:50:26;35.97;;;13.97;;
43098;SDS011;28715;51.988;6.020;2023-04-16T04:52:52;34.10;;;13.03;;
43098;SDS011;28715;51.988;6.020;2023-04-16T04:55:18;31.67;;;12.43;;
43098;SDS011;28715;51.988;6.020;2023-04-16T04:57:43;36.57;;;12.33;;
43098;SDS011;28715;51.988;6.020;2023-04-16T05:00:09;31.30;;;11.33;;
43098;SDS011;28715;51.988;6.020;2023-04-16T05:02:35;28.23;;;10.53;;
43098;SDS011;28715;51.988;6.020;2023-04-16T05:05:00;23.37;;;7.57;;
43098;SDS011;28715;51.988;6.020;2023-04-16T05:07:26;27.10;;;10.43;;
43098;SDS011;28715;51.988;6.020;2023-04-16T05:09:51;34.20;;;11.53;;
43098;SDS011;28715;51.988;6.020;2023-04-16T05:12:17;32.40;;;11.90;;
43098;SDS011;28715;51.988;6.020;2023-04-16T05:14:43;27.10;;;10.33;;
43098;SDS011;28715;51.988;6.020;2023-04-16T05:17:08;26.97;;;10.93;;
43098;SDS011;28715;51.988;6.020;2023-04-16T05:19:34;34.40;;;11.00;;
43098;SDS011;28715;51.988;6.020;2023-04-16T05:22:00;28.00;;;9.33;;
43098;SDS011;28715;51.988;6.020;2023-04-16T05:24:26;28.00;;;10.95;;
43098;SDS011;28715;51.988;6.020;2023-04-16T05:26:52;33.87;;;10.97;;
43098;SDS011;28715;51.988;6.020;2023-04-16T05:29:17;23.13;;;10.50;;
43098;SDS011;28715;51.988;6.020;2023-04-16T05:31:43;29.80;;;10.60;;
43098;SDS011;28715;51.988;6.020;2023-04-16T05:34:09;32.57;;;12.33;;
43098;SDS011;28715;51.988;6.020;2023-04-16T05:36:34;28.20;;;10.87;;
43098;SDS011;28715;51.988;6.020;2023-04-16T05:39:00;27.83;;;10.77;;
43098;SDS011;28715;51.988;6.020;2023-04-16T05:41:25;30.03;;;11.43;;
43098;SDS011;28715;51.988;6.020;2023-04-16T05:43:51;30.47;;;11.37;;
43098;SDS011;28715;51.988;6.020;2023-04-16T05:46:17;31.60;;;13.17;;
43098;SDS011;28715;51.988;6.020;2023-04-16T05:48:42;33.40;;;12.53;;
43098;SDS011;28715;51.988;6.020;2023-04-16T05:51:08;30.37;;;11.57;;
43098;SDS011;28715;51.988;6.020;2023-04-16T05:53:33;27.87;;;11.73;;
43098;SDS011;28715;51.988;6.020;2023-04-16T05:55:59;27.30;;;11.90;;
43098;SDS011;28715;51.988;6.020;2023-04-16T05:58:25;27.80;;;11.77;;
43098;SDS011;28715;51.988;6.020;2023-04-16T06:00:50;25.97;;;11.27;;
43098;SDS011;28715;51.988;6.020;2023-04-16T06:03:16;26.63;;;10.83;;
43098;SDS011;28715;51.988;6.020;2023-04-16T06:05:41;35.30;;;11.10;;
43098;SDS011;28715;51.988;6.020;2023-04-16T06:08:07;31.43;;;12.03;;
43098;SDS011;28715;51.988;6.020;2023-04-16T06:10:32;29.37;;;12.77;;
43098;SDS011;28715;51.988;6.020;2023-04-16T06:12:58;24.77;;;10.80;;
43098;SDS011;28715;51.988;6.020;2023-04-16T06:15:24;27.17;;;11.63;;
43098;SDS011;28715;51.988;6.020;2023-04-16T06:17:49;27.90;;;10.63;;
43098;SDS011;28715;51.988;6.020;2023-04-16T06:20:15;25.37;;;10.70;;
43098;SDS011;28715;51.988;6.020;2023-04-16T06:22:43;26.37;;;11.00;;
43098;SDS011;28715;51.988;6.020;2023-04-16T06:25:20;31.08;;;11.93;;
43098;SDS011;28715;51.988;6.020;2023-04-16T06:27:46;30.97;;;12.13;;
43098;SDS011;28715;51.988;6.020;2023-04-16T06:30:12;1.90;;;1.50;;
43098;SDS011;28715;51.988;6.020;2023-04-16T06:32:38;8.07;;;3.35;;
43098;SDS011;28715;51.988;6.020;2023-04-16T06:35:10;2.87;;;2.37;;
43098;SDS011;28715;51.988;6.020;2023-04-16T06:37:42;4.65;;;2.22;;
43098;SDS011;28715;51.988;6.020;2023-04-16T06:40:11;4.70;;;1.80;;
43098;SDS011;28715;51.988;6.020;2023-04-16T06:42:37;1.87;;;1.20;;
43098;SDS011;28715;51.988;6.020;2023-04-16T06:45:03;2.27;;;2.07;;
43098;SDS011;28715;51.988;6.020;2023-04-16T06:47:29;2.80;;;1.13;;
43098;SDS011;28715;51.988;6.020;2023-04-16T06:50:01;16.87;;;1.67;;
43098;SDS011;28715;51.988;6.020;2023-04-16T06:52:26;3.92;;;2.75;;
43098;SDS011;28715;51.988;6.020;2023-04-16T06:54:56;2.95;;;1.42;;
43098;SDS011;28715;51.988;6.020;2023-04-16T06:57:24;10.02;;;4.13;;
43098;SDS011;28715;51.988;6.020;2023-04-16T06:59:50;8.50;;;1.75;;
43098;SDS011;28715;51.988;6.020;2023-04-16T07:02:18;2.20;;;0.97;;
43098;SDS011;28715;51.988;6.020;2023-04-16T07:04:44;2.67;;;1.98;;
43098;SDS011;28715;51.988;6.020;2023-04-16T07:07:09;3.70;;;2.00;;
43098;SDS011;28715;51.988;6.020;2023-04-16T07:09:35;6.43;;;2.53;;
43098;SDS011;28715;51.988;6.020;2023-04-16T07:12:03;2.60;;;1.85;;
43098;SDS011;28715;51.988;6.020;2023-04-16T07:14:30;2.55;;;2.13;;
43098;SDS011;28715;51.988;6.020;2023-04-16T07:16:56;1.70;;;1.13;;
43098;SDS011;28715;51.988;6.020;2023-04-16T07:19:22;5.97;;;3.17;;
43098;SDS011;28715;51.988;6.020;2023-04-16T07:21:47;3.10;;;1.63;;
43098;SDS011;28715;51.988;6.020;2023-04-16T07:24:13;8.20;;;2.93;;
43098;SDS011;28715;51.988;6.020;2023-04-16T07:26:39;10.23;;;3.28;;
43098;SDS011;28715;51.988;6.020;2023-04-16T07:29:05;6.57;;;2.00;;
43098;SDS011;28715;51.988;6.020;2023-04-16T07:31:31;3.07;;;2.67;;
43098;SDS011;28715;51.988;6.020;2023-04-16T07:33:57;2.53;;;1.83;;
43098;SDS011;28715;51.988;6.020;2023-04-16T07:36:23;14.52;;;2.25;;
43098;SDS011;28715;51.988;6.020;2023-04-16T07:38:48;7.60;;;1.80;;
43098;SDS011;28715;51.988;6.020;2023-04-16T07:41:14;5.80;;;2.50;;
43098;SDS011;28715;51.988;6.020;2023-04-16T07:43:39;6.73;;;1.67;;
43098;SDS011;28715;51.988;6.020;2023-04-16T07:46:05;5.67;;;2.10;;
43098;SDS011;28715;51.988;6.020;2023-04-16T07:48:31;2.50;;;0.87;;
43098;SDS011;28715;51.988;6.020;2023-04-16T07:50:56;2.37;;;0.73;;
43098;SDS011;28715;51.988;6.020;2023-04-16T07:53:22;10.37;;;1.83;;
43098;SDS011;28715;51.988;6.020;2023-04-16T07:55:47;2.50;;;1.83;;
43098;SDS011;28715;51.988;6.020;2023-04-16T07:58:13;1.07;;;0.70;;
43098;SDS011;28715;51.988;6.020;2023-04-16T08:00:39;2.53;;;1.63;;
43098;SDS011;28715;51.988;6.020;2023-04-16T08:03:06;2.90;;;1.57;;
43098;SDS011;28715;51.988;6.020;2023-04-16T08:05:31;7.18;;;2.88;;
43098;SDS011;28715;51.988;6.020;2023-04-16T08:07:57;2.47;;;1.40;;
43098;SDS011;28715;51.988;6.020;2023-04-16T08:10:22;15.90;;;2.23;;
43098;SDS011;28715;51.988;6.020;2023-04-16T08:12:48;4.53;;;1.87;;
43098;SDS011;28715;51.988;6.020;2023-04-16T08:15:13;4.53;;;2.10;;
43098;SDS011;28715;51.988;6.020;2023-04-16T08:17:39;4.87;;;2.77;;
43098;SDS011;28715;51.988;6.020;2023-04-16T08:20:05;31.07;;;13.30;;
43098;SDS011;28715;51.988;6.020;2023-04-16T08:22:31;19.58;;;7.85;;
43098;SDS011;28715;51.988;6.020;2023-04-16T08:24:57;12.45;;;3.40;;
43098;SDS011;28715;51.988;6.020;2023-04-16T08:27:22;8.50;;;3.57;;
43098;SDS011;28715;51.988;6.020;2023-04-16T08:29:48;5.23;;;2.53;;
43098;SDS011;28715;51.988;6.020;2023-04-16T08:32:14;9.77;;;4.23;;
43098;SDS011;28715;51.988;6.020;2023-04-16T08:35:01;17.92;;;6.32;;
43098;SDS011;28715;51.988;6.020;2023-04-16T08:40:25;21.42;;;7.25;;
43098;SDS011;28715;51.988;6.020;2023-04-16T08:43:38;8.52;;;3.53;;
43098;SDS011;28715;51.988;6.020;2023-04-16T08:49:44;1.67;;;1.48;;
43098;SDS011;28715;51.988;6.020;2023-04-16T08:52:22;27.00;;;8.93;;
43098;SDS011;28715;51.988;6.020;2023-04-16T08:58:33;1052.90;;;512.53;;
43098;SDS011;28715;51.988;6.020;2023-04-16T09:01:12;3.00;;;2.30;;
43098;SDS011;28715;51.988;6.020;2023-04-16T09:03:56;5.05;;;3.28;;
43098;SDS011;28715;51.988;6.020;2023-04-16T09:06:40;3.65;;;2.15;;
43098;SDS011;28715;51.988;6.020;2023-04-16T09:09:27;4.20;;;1.80;;
43098;SDS011;28715;51.988;6.020;2023-04-16T09:15:07;28.33;;;9.05;;
43098;SDS011;28715;51.988;6.020;2023-04-16T09:18:05;28.02;;;10.02;;
43098;SDS011;28715;51.988;6.020;2023-04-16T09:20:39;35.90;;;13.93;;
43098;SDS011;28715;51.988;6.020;2023-04-16T09:26:26;24.92;;;8.48;;
43098;SDS011;28715;51.988;6.020;2023-04-16T09:29:33;35.05;;;14.32;;
43098;SDS011;28715;51.988;6.020;2023-04-16T09:35:06;40.50;;;22.60;;
43098;SDS011;28715;51.988;6.020;2023-04-16T09:38:08;40.33;;;22.23;;
43098;SDS011;28715;51.988;6.020;2023-04-16T09:41:04;35.55;;;20.48;;
43098;SDS011;28715;51.988;6.020;2023-04-16T09:43:38;1999.90;;;999.90;;
43098;SDS011;28715;51.988;6.020;2023-04-16T09:46:19;1999.90;;;999.90;;
43098;SDS011;28715;51.988;6.020;2023-04-16T09:49:05;1999.90;;;999.90;;
43098;SDS011;28715;51.988;6.020;2023-04-16T09:51:36;1999.90;;;999.90;;
43098;SDS011;28715;51.988;6.020;2023-04-16T09:54:08;1999.90;;;999.90;;
43098;SDS011;28715;51.988;6.020;2023-04-16T09:56:43;205.40;;;139.35;;
43098;SDS011;28715;51.988;6.020;2023-04-16T09:59:16;2.92;;;1.55;;
43098;SDS011;28715;51.988;6.020;2023-04-16T10:01:57;7.68;;;3.40;;
43098;SDS011;28715;51.988;6.020;2023-04-16T10:04:24;10.43;;;2.63;;
43098;SDS011;28715;51.988;6.020;2023-04-16T10:07:04;33.67;;;13.68;;
43098;SDS011;28715;51.988;6.020;2023-04-16T10:09:31;33.22;;;20.05;;
43098;SDS011;28715;51.988;6.020;2023-04-16T10:12:01;31.02;;;19.65;;
43098;SDS011;28715;51.988;6.020;2023-04-16T10:14:27;3.63;;;1.60;;
43098;SDS011;28715;51.988;6.020;2023-04-16T10:16:53;11.10;;;3.50;;
43098;SDS011;28715;51.988;6.020;2023-04-16T10:19:20;9.95;;;4.15;;
43098;SDS011;28715;51.988;6.020;2023-04-16T10:21:46;12.50;;;4.30;;
43098;SDS011;28715;51.988;6.020;2023-04-16T10:24:12;6.45;;;2.75;;
43098;SDS011;28715;51.988;6.020;2023-04-16T10:26:40;31.40;;;20.02;;
43098;SDS011;28715;51.988;6.020;2023-04-16T10:29:07;31.90;;;19.60;;
43098;SDS011;28715;51.988;6.020;2023-04-16T10:31:36;28.08;;;17.30;;
43098;SDS011;28715;51.988;6.020;2023-04-16T10:34:10;35.22;;;19.98;;
43098;SDS011;28715;51.988;6.020;2023-04-16T10:36:37;38.05;;;13.73;;
43098;SDS011;28715;51.988;6.020;2023-04-16T10:39:04;35.28;;;13.93;;
43098;SDS011;28715;51.988;6.020;2023-04-16T10:41:35;24.48;;;13.50;;
43098;SDS011;28715;51.988;6.020;2023-04-16T10:44:08;24.23;;;12.25;;
43098;SDS011;28715;51.988;6.020;2023-04-16T10:46:41;23.00;;;10.90;;
43098;SDS011;28715;51.988;6.020;2023-04-16T10:49:17;29.85;;;19.45;;
43098;SDS011;28715;51.988;6.020;2023-04-16T10:51:53;27.55;;;18.05;;
43098;SDS011;28715;51.988;6.020;2023-04-16T10:54:21;31.17;;;18.27;;
43098;SDS011;28715;51.988;6.020;2023-04-16T10:59:45;33.95;;;19.83;;
43098;SDS011;28715;51.988;6.020;2023-04-16T11:02:13;33.10;;;18.30;;
43098;SDS011;28715;51.988;6.020;2023-04-16T11:04:48;35.65;;;20.10;;
43098;SDS011;28715;51.988;6.020;2023-04-16T11:07:30;29.60;;;17.50;;
43098;SDS011;28715;51.988;6.020;2023-04-16T11:09:59;27.83;;;17.17;;
43098;SDS011;28715;51.988;6.020;2023-04-16T11:14:58;24.77;;;15.90;;
43098;SDS011;28715;51.988;6.020;2023-04-16T11:17:36;27.03;;;17.00;;
43098;SDS011;28715;51.988;6.020;2023-04-16T11:20:15;25.03;;;16.37;;
43098;SDS011;28715;51.988;6.020;2023-04-16T11:22:48;25.70;;;16.10;;
43098;SDS011;28715;51.988;6.020;2023-04-16T11:25:18;25.80;;;16.37;;
43098;SDS011;28715;51.988;6.020;2023-04-16T11:27:48;24.43;;;16.30;;
43098;SDS011;28715;51.988;6.020;2023-04-16T11:30:15;26.00;;;15.17;;
43098;SDS011;28715;51.988;6.020;2023-04-16T11:32:42;27.80;;;15.93;;
43098;SDS011;28715;51.988;6.020;2023-04-16T11:35:12;25.00;;;15.17;;
43098;SDS011;28715;51.988;6.020;2023-04-16T11:37:40;26.17;;;13.83;;
43098;SDS011;28715;51.988;6.020;2023-04-16T11:40:06;25.10;;;14.03;;
43098;SDS011;28715;51.988;6.020;2023-04-16T11:42:33;23.40;;;13.77;;
43098;SDS011;28715;51.988;6.020;2023-04-16T11:45:05;24.20;;;13.83;;
43098;SDS011;28715;51.988;6.020;2023-04-16T11:47:36;25.07;;;14.37;;
43098;SDS011;28715;51.988;6.020;2023-04-16T11:50:28;24.40;;;14.52;;
43098;SDS011;28715;51.988;6.020;2023-04-16T11:52:55;24.13;;;14.67;;
43098;SDS011;28715;51.988;6.020;2023-04-16T11:55:21;24.57;;;10.87;;
43098;SDS011;28715;51.988;6.020;2023-04-16T11:57:49;24.58;;;11.13;;
43098;SDS011;28715;51.988;6.020;2023-04-16T12:00:15;24.37;;;12.13;;
43098;SDS011;28715;51.988;6.020;2023-04-16T12:02:44;21.67;;;11.27;;
43098;SDS011;28715;51.988;6.020;2023-04-16T12:05:37;29.52;;;12.10;;
43098;SDS011;28715;51.988;6.020;2023-04-16T12:08:04;25.73;;;16.42;;
43098;SDS011;28715;51.988;6.020;2023-04-16T12:10:35;26.77;;;17.23;;
43098;SDS011;28715;51.988;6.020;2023-04-16T12:13:09;23.55;;;15.43;;
43098;SDS011;28715;51.988;6.020;2023-04-16T12:15:44;26.45;;;16.05;;
43098;SDS011;28715;51.988;6.020;2023-04-16T12:18:21;25.77;;;16.33;;
43098;SDS011;28715;51.988;6.020;2023-04-16T12:20:49;24.70;;;15.88;;
43098;SDS011;28715;51.988;6.020;2023-04-16T12:23:22;29.13;;;18.37;;
43098;SDS011;28715;51.988;6.020;2023-04-16T12:25:55;27.17;;;17.25;;
43098;SDS011;28715;51.988;6.020;2023-04-16T12:28:28;27.08;;;16.38;;
43098;SDS011;28715;51.988;6.020;2023-04-16T12:30:55;32.05;;;16.40;;
43098;SDS011;28715;51.988;6.020;2023-04-16T12:33:20;25.07;;;15.67;;
43098;SDS011;28715;51.988;6.020;2023-04-16T12:35:46;29.27;;;15.60;;
43098;SDS011;28715;51.988;6.020;2023-04-16T12:38:12;27.23;;;15.83;;
43098;SDS011;28715;51.988;6.020;2023-04-16T12:40:39;31.50;;;17.48;;
43098;SDS011;28715;51.988;6.020;2023-04-16T12:43:05;29.52;;;15.75;;
43098;SDS011;28715;51.988;6.020;2023-04-16T12:45:32;1999.90;;;999.90;;
43098;SDS011;28715;51.988;6.020;2023-04-16T12:47:58;28.17;;;11.37;;
43098;SDS011;28715;51.988;6.020;2023-04-16T12:50:23;24.90;;;10.30;;
43098;SDS011;28715;51.988;6.020;2023-04-16T12:52:52;25.37;;;11.07;;
43098;SDS011;28715;51.988;6.020;2023-04-16T12:55:17;27.15;;;11.77;;
43098;SDS011;28715;51.988;6.020;2023-04-16T12:57:49;22.98;;;11.05;;
43098;SDS011;28715;51.988;6.020;2023-04-16T13:00:19;29.83;;;11.40;;
43098;SDS011;28715;51.988;6.020;2023-04-16T13:02:45;27.75;;;15.10;;
43098;SDS011;28715;51.988;6.020;2023-04-16T13:05:16;27.80;;;15.70;;
43098;SDS011;28715;51.988;6.020;2023-04-16T13:07:43;29.42;;;16.40;;
43098;SDS011;28715;51.988;6.020;2023-04-16T13:10:19;21.58;;;9.55;;
43098;SDS011;28715;51.988;6.020;2023-04-16T13:12:45;24.23;;;11.40;;
43098;SDS011;28715;51.988;6.020;2023-04-16T13:15:18;26.33;;;12.33;;
43098;SDS011;28715;51.988;6.020;2023-04-16T13:17:49;29.38;;;12.20;;
43098;SDS011;28715;51.988;6.020;2023-04-16T13:20:18;33.65;;;12.82;;
43098;SDS011;28715;51.988;6.020;2023-04-16T13:22:44;26.10;;;12.57;;
43098;SDS011;28715;51.988;6.020;2023-04-16T13:25:10;22.47;;;11.60;;
43098;SDS011;28715;51.988;6.020;2023-04-16T13:27:35;31.87;;;15.17;;
43098;SDS011;28715;51.988;6.020;2023-04-16T13:30:04;28.98;;;14.88;;
43098;SDS011;28715;51.988;6.020;2023-04-16T13:32:30;32.30;;;14.85;;
43098;SDS011;28715;51.988;6.020;2023-04-16T13:34:56;23.70;;;10.13;;
43098;SDS011;28715;51.988;6.020;2023-04-16T13:37:21;24.63;;;11.50;;
43098;SDS011;28715;51.988;6.020;2023-04-16T13:39:47;23.93;;;11.43;;
43098;SDS011;28715;51.988;6.020;2023-04-16T13:42:15;30.77;;;11.80;;
43098;SDS011;28715;51.988;6.020;2023-04-16T13:44:41;25.98;;;10.02;;
43098;SDS011;28715;51.988;6.020;2023-04-16T13:47:06;30.30;;;10.80;;
43098;SDS011;28715;51.988;6.020;2023-04-16T13:49:32;28.50;;;11.80;;
43098;SDS011;28715;51.988;6.020;2023-04-16T13:51:59;28.13;;;10.52;;
43098;SDS011;28715;51.988;6.020;2023-04-16T13:54:24;22.93;;;10.90;;
43098;SDS011;28715;51.988;6.020;2023-04-16T13:56:50;22.20;;;11.30;;
43098;SDS011;28715;51.988;6.020;2023-04-16T13:59:18;23.33;;;11.27;;
43098;SDS011;28715;51.988;6.020;2023-04-16T14:01:44;28.35;;;11.30;;
43098;SDS011;28715;51.988;6.020;2023-04-16T14:04:10;28.33;;;11.40;;
43098;SDS011;28715;51.988;6.020;2023-04-16T14:06:35;26.10;;;11.03;;
43098;SDS011;28715;51.988;6.020;2023-04-16T14:09:01;24.00;;;11.20;;
43098;SDS011;28715;51.988;6.020;2023-04-16T14:11:26;26.83;;;11.63;;
43098;SDS011;28715;51.988;6.020;2023-04-16T14:13:52;22.50;;;11.27;;
43098;SDS011;28715;51.988;6.020;2023-04-16T14:16:18;23.17;;;11.33;;
43098;SDS011;28715;51.988;6.020;2023-04-16T14:18:44;19.50;;;8.63;;
43098;SDS011;28715;51.988;6.020;2023-04-16T14:21:09;22.33;;;10.67;;
43098;SDS011;28715;51.988;6.020;2023-04-16T14:23:35;24.67;;;14.73;;
43098;SDS011;28715;51.988;6.020;2023-04-16T14:26:01;24.50;;;15.40;;
43098;SDS011;28715;51.988;6.020;2023-04-16T14:28:26;24.53;;;13.80;;
43098;SDS011;28715;51.988;6.020;2023-04-16T14:30:52;24.50;;;14.57;;
43098;SDS011;28715;51.988;6.020;2023-04-16T14:33:20;20.00;;;10.30;;
43098;SDS011;28715;51.988;6.020;2023-04-16T14:35:48;26.83;;;15.88;;
43098;SDS011;28715;51.988;6.020;2023-04-16T14:38:15;30.25;;;15.27;;
43098;SDS011;28715;51.988;6.020;2023-04-16T14:40:40;23.87;;;15.47;;
43098;SDS011;28715;51.988;6.020;2023-04-16T14:43:06;23.20;;;15.13;;
43098;SDS011;28715;51.988;6.020;2023-04-16T14:45:32;25.10;;;13.73;;
43098;SDS011;28715;51.988;6.020;2023-04-16T14:47:57;23.67;;;14.10;;
43098;SDS011;28715;51.988;6.020;2023-04-16T14:50:23;25.83;;;14.37;;
43098;SDS011;28715;51.988;6.020;2023-04-16T14:52:49;23.83;;;14.40;;
43098;SDS011;28715;51.988;6.020;2023-04-16T14:55:15;26.30;;;14.60;;
43098;SDS011;28715;51.988;6.020;2023-04-16T14:57:40;24.83;;;14.27;;
43098;SDS011;28715;51.988;6.020;2023-04-16T15:00:14;24.55;;;14.38;;
43098;SDS011;28715;51.988;6.020;2023-04-16T15:03:06;20.98;;;14.63;;